メインページ
METAR-TAF:

METAR-TAF

空港 :

ワガドゥグー, ブルキナファソ

ワガドゥグー空港

緯度: 12-21N, 経度: 001-31W, 海抜: 316m

現時点の気象観測

当レポートは41分前の14:00(UTC)に作成
南/南西の風 6kt、から西/南西の間で変化する
気温 30°C
湿度 62%
気圧 1012 hPa
視程10km以上
高度2000ftの雲は散在している
高度3300ftの雲はほとんどない, 積乱雲.

METAR: DFFD 261400Z 21006KT 170V240 9999 SCT020 FEW033CB 30/22 Q1012 NOSIG

時間: 14:41 (14:41 UTC)

予報

当レポートは3時間41分前の11:00(UTC)に作成
予報は26日の 12時(UTC)から 27日の 18時(UTC)まで有効
西/南西の風 8kt
視程10km以上
高度2000ftの雲は散在している
26日の 16時(UTC)から 26日の 22時(UTC)まで一時的に
高度2000ftの雲はほとんどない
高度3300ftの雲はほとんどない, 積乱雲.
激しい雷雨
27日の 06時(UTC)から 27日の 16時(UTC)まで一時的に
変向風 20kt
視程: 3500m
高度2000ftの雲は散在している
高度3300ftの雲は散在している, 積乱雲.
激しい雷雨, 雨

TAF: DFFD 261100Z 2612/2718 24008KT 9999 SCT020 TEMPO 2616/2622 TS FEW020 FEW033CB TEMPO 2706/2716 VRB20KT 3500 TSRA SCT020 SCT033CB

4,000以上の空港の気象観測と天気予報(METAR報とTAF報)

利用可能な観測所は地図上に黄色い丸と赤い丸で示す。

丸の上にカーソルを重ねると観測所名を参照できる。

次にクリックすると気象観測と天気予報を参照できる。

マップの切り替え:黒色「×」印の緑ボタンをクリックして拡大、「-」印の緑ボタンをクリックして縮小、緑色の三角印をクリックして隣りの地図に切り替え


METAR-TAF: